Time;durP1;ratioP1;P1;durP2;ratioP2;P2;SDS_P1;SDS_P2;PMS_P1;PMS_P2;Temp;Humidity;BMP_temperature;BMP_pressure;BME280_temperature;BME280_humidity;BME280_pressure;Samples;Min_cycle;Max_cycle;Signal;HPM_P1;HPM_P2
2021/12/05 00:21:44;;;;;;;57.28;24.30;;;3.90;99.90;;;3.84;53.62;97300.50;6042931;23;20019;-79
2021/12/05 00:24:18;;;;;;;60.10;25.30;;;3.90;99.90;;;3.87;53.74;97294.63;6041106;23;20562;-79
2021/12/05 00:26:56;;;;;;;60.88;26.63;;;3.90;99.90;;;3.70;54.01;97284.13;6025382;23;20169;-79
2021/12/05 00:32:04;;;;;;;63.22;29.38;;;3.90;99.90;;;3.71;53.97;97288.41;6049679;23;20473;-79
2021/12/05 00:34:56;;;;;;;56.97;27.42;;;3.90;99.90;;;3.79;53.93;97301.31;6052792;23;20026;-80
2021/12/05 00:51:07;;;;;;;65.13;25.23;;;4.00;99.90;;;3.74;55.66;97300.50;6042073;23;20048;-80
2021/12/05 00:54:21;;;;;;;59.00;26.40;;;4.00;99.90;;;3.74;55.84;97287.91;6047087;23;20094;-80
2021/12/05 00:59:32;;;;;;;67.72;28.95;;;3.90;99.90;;;3.73;54.17;97293.53;6046135;23;20015;-80
2021/12/05 01:05:13;;;;;;;56.00;25.73;;;3.90;99.90;;;3.84;54.13;97289.78;6054034;23;20030;-79
2021/12/05 01:10:28;;;;;;;58.03;25.85;;;4.00;99.90;;;3.86;54.76;97303.72;6041322;23;20065;-79
2021/12/05 01:15:39;;;;;;;63.78;27.77;;;4.00;99.90;;;3.88;54.26;97307.75;6053913;23;20057;-79
2021/12/05 01:18:09;;;;;;;56.08;25.98;;;4.00;99.90;;;3.90;54.74;97297.56;6040719;23;20018;-79
2021/12/05 01:20:40;;;;;;;62.55;29.85;;;4.10;99.90;;;3.87;54.64;97294.63;6064486;23;20022;-79
2021/12/05 01:23:13;;;;;;;57.53;28.45;;;4.10;99.90;;;3.94;53.67;97297.03;6050321;23;20118;-79
2021/12/05 01:28:34;;;;;;;56.45;25.50;;;4.10;99.90;;;3.96;53.59;97298.38;6074445;23;20050;-79
2021/12/05 01:47:39;;;;;;;68.00;25.20;;;4.10;99.90;;;3.95;54.69;97296.78;6055394;23;20042;-80
2021/12/05 02:36:50;;;;;;;54.05;22.65;;;3.90;99.90;;;3.73;55.95;97304.25;6066728;23;20022;-80
2021/12/05 02:42:14;;;;;;;51.97;22.10;;;4.00;99.90;;;3.87;56.25;97305.34;6013966;23;20042;-80
2021/12/05 02:44:41;;;;;;;50.83;22.85;;;4.00;99.90;;;3.88;56.15;97304.28;6051057;23;20030;-80
2021/12/05 02:47:14;;;;;;;52.20;23.10;;;4.00;99.90;;;3.89;56.67;97304.03;6040494;23;20018;-80
2021/12/05 02:49:44;;;;;;;49.67;22.42;;;4.00;99.90;;;3.81;55.63;97293.78;6050522;23;20018;-80
2021/12/05 02:52:18;;;;;;;49.53;21.50;;;4.00;99.90;;;3.79;54.92;97300.50;6051476;23;20026;-80
2021/12/05 02:54:50;;;;;;;45.92;22.00;;;4.00;99.90;;;3.63;55.60;97300.47;6074832;23;20018;-80
2021/12/05 02:57:19;;;;;;;50.78;22.55;;;3.90;99.90;;;3.61;55.61;97291.91;6051092;23;20026;-80
2021/12/05 02:59:51;;;;;;;46.95;22.33;;;3.90;99.90;;;3.72;55.31;97302.66;6018793;23;20089;-80
2021/12/05 03:02:19;;;;;;;62.35;26.58;;;3.90;99.90;;;3.69;55.31;97298.63;6054719;23;20090;-79
2021/12/05 03:04:48;;;;;;;47.70;21.80;;;3.90;99.90;;;3.74;56.05;97300.50;6021115;23;20394;-79
2021/12/05 03:07:20;;;;;;;56.67;21.90;;;3.90;99.90;;;3.79;56.18;97300.50;6042364;23;20023;-80
2021/12/05 03:09:46;;;;;;;54.53;22.52;;;3.90;99.90;;;3.72;56.38;97298.09;6051584;23;20054;-80
2021/12/05 03:12:18;;;;;;;52.38;22.40;;;3.90;99.90;;;3.59;56.42;97294.06;6042783;23;20018;-80
2021/12/05 03:14:49;;;;;;;48.00;23.65;;;3.90;99.90;;;3.62;56.86;97290.84;6052671;23;20023;-79
2021/12/05 03:17:16;;;;;;;49.15;21.70;;;3.90;99.90;;;3.60;56.20;97289.50;6053714;23;20039;-80
2021/12/05 03:19:43;;;;;;;50.67;23.90;;;3.90;99.90;;;3.69;56.59;97291.38;6043301;23;20023;-80
2021/12/05 03:22:09;;;;;;;55.33;23.23;;;3.90;99.90;;;3.79;56.18;97293.28;6044402;23;20019;-79
2021/12/05 03:24:36;;;;;;;47.30;21.63;;;3.90;99.90;;;3.84;55.78;97292.47;6042458;23;20023;-80
2021/12/05 03:27:02;;;;;;;48.65;20.83;;;4.00;99.90;;;3.81;56.14;97284.94;6040700;23;20022;-79
2021/12/05 03:29:28;;;;;;;52.80;23.30;;;4.00;99.90;;;3.82;56.15;97286.56;6016622;23;20109;-80
2021/12/05 03:31:56;;;;;;;56.92;23.10;;;4.00;99.90;;;3.84;56.42;97287.09;6040956;23;20151;-80
2021/12/05 03:34:22;;;;;;;51.30;21.88;;;4.00;99.90;;;3.82;56.56;97290.06;6017047;23;20459;-80
2021/12/05 03:36:52;;;;;;;46.67;22.38;;;4.00;99.90;;;3.81;56.14;97288.44;6040310;23;20019;-79
2021/12/05 03:39:19;;;;;;;45.50;21.10;;;4.00;99.90;;;3.77;55.55;97289.25;6040346;23;20411;-80
2021/12/05 03:41:45;;;;;;;45.90;19.85;;;4.00;99.90;;;3.77;54.87;97284.69;6039464;23;20023;-80
2021/12/05 03:44:13;;;;;;;44.75;20.58;;;4.00;99.90;;;3.83;54.79;97283.59;6038797;23;20025;-80
2021/12/05 03:46:39;;;;;;;47.67;19.75;;;4.00;99.90;;;3.78;55.14;97280.94;6039194;23;20074;-80
2021/12/05 03:49:09;;;;;;;43.38;19.35;;;4.00;99.90;;;3.74;54.73;97279.88;6039180;23;20029;-80
2021/12/05 03:51:38;;;;;;;42.35;17.67;;;4.00;99.90;;;3.76;55.56;97277.69;6015472;23;20050;-80
2021/12/05 03:54:06;;;;;;;34.55;17.40;;;4.00;99.90;;;3.78;55.28;97290.84;6039740;23;20026;-80
2021/12/05 03:56:34;;;;;;;39.10;17.08;;;4.00;99.90;;;3.68;55.65;97287.06;6015554;23;20042;-80
2021/12/05 03:59:00;;;;;;;41.33;17.33;;;4.00;99.90;;;3.82;55.63;97298.09;6063570;23;20030;-80
2021/12/05 04:01:27;;;;;;;34.00;15.90;;;3.90;99.90;;;3.80;56.21;97292.19;6039552;23;20028;-80
2021/12/05 04:03:54;;;;;;;38.53;18.13;;;4.00;99.90;;;3.80;55.87;97299.44;6039200;23;20018;-80
2021/12/05 04:06:21;;;;;;;39.33;19.95;;;4.00;99.90;;;3.87;56.18;97300.00;6038092;23;20271;-80
2021/12/05 04:08:50;;;;;;;40.35;18.25;;;4.00;99.90;;;3.83;56.25;97298.91;6038621;23;20023;-80
2021/12/05 04:11:25;;;;;;;36.78;17.98;;;4.00;99.90;;;3.79;56.53;97297.81;6062469;23;20531;-80
2021/12/05 04:13:51;;;;;;;46.83;19.90;;;4.00;99.90;;;3.80;57.00;97302.13;6050094;23;20307;-79
2021/12/05 04:16:17;;;;;;;53.35;21.23;;;4.00;99.90;;;3.79;56.76;97297.81;6040409;23;20066;-79
2021/12/05 04:18:45;;;;;;;44.67;19.77;;;3.90;99.90;;;3.67;57.66;97304.25;6039055;23;20066;-79
2021/12/05 04:21:12;;;;;;;41.35;19.80;;;3.90;99.90;;;3.62;57.81;97309.59;6064810;23;20022;-79
2021/12/05 04:23:38;;;;;;;37.13;18.63;;;3.90;99.90;;;3.59;58.59;97312.03;6040996;23;20019;-80
2021/12/05 04:26:04;;;;;;;43.50;20.98;;;3.90;99.90;;;3.54;58.65;97304.75;6016432;23;20336;-79
2021/12/05 04:28:31;;;;;;;32.92;17.20;;;3.80;99.90;;;3.49;59.04;97302.06;6039970;23;20125;-79
2021/12/05 04:30:57;;;;;;;39.90;19.17;;;3.80;99.90;;;3.48;59.60;97306.59;6038021;23;20025;-80
2021/12/05 04:33:23;;;;;;;37.13;18.08;;;3.70;99.90;;;3.41;59.90;97305.25;6039059;23;20018;-79
2021/12/05 04:35:50;;;;;;;39.00;18.55;;;3.70;99.90;;;3.30;60.36;97317.00;6015670;23;20038;-79
2021/12/05 04:38:16;;;;;;;37.92;19.17;;;3.60;99.90;;;3.11;60.96;97312.13;6063900;23;20019;-79
2021/12/05 04:40:45;;;;;;;41.28;20.15;;;3.50;99.90;;;3.10;61.24;97315.06;6039702;23;20098;-79
2021/12/05 04:43:14;;;;;;;47.50;20.40;;;3.40;99.90;;;3.20;61.20;97321.25;6048560;23;20078;-80
2021/12/05 04:45:42;;;;;;;42.58;21.10;;;3.40;99.90;;;3.18;61.61;97314.53;6037692;23;20023;-80
2021/12/05 04:48:08;;;;;;;48.13;21.70;;;3.40;99.90;;;3.13;61.42;97312.69;6039557;23;20323;-80
2021/12/05 04:50:35;;;;;;;41.45;21.38;;;3.40;99.90;;;3.06;62.65;97314.78;6038881;23;20094;-80
2021/12/05 04:53:01;;;;;;;51.08;23.88;;;3.40;99.90;;;2.99;62.78;97315.00;6039715;23;20737;-79
2021/12/05 04:55:27;;;;;;;61.60;28.40;;;3.30;99.90;;;2.96;63.20;97322.78;6039252;23;20030;-80
2021/12/05 04:57:53;;;;;;;68.13;30.38;;;3.30;99.90;;;3.05;63.09;97323.88;6016352;23;20519;-80
2021/12/05 05:00:26;;;;;;;74.47;32.50;;;3.30;99.90;;;3.05;62.91;97329.22;6040410;23;20030;-80
2021/12/05 05:02:53;;;;;;;71.22;34.15;;;3.30;99.90;;;3.14;62.62;97334.91;6049919;23;20022;-80
2021/12/05 05:05:19;;;;;;;62.65;28.52;;;3.30;99.90;;;3.25;62.22;97341.91;6064901;23;20094;-80
2021/12/05 05:07:46;;;;;;;44.03;22.90;;;3.30;99.90;;;3.26;62.31;97330.16;6041352;23;20094;-80
2021/12/05 05:10:17;;;;;;;48.33;21.80;;;3.40;99.90;;;3.12;63.02;97339.72;6065488;23;20019;-80
2021/12/05 05:12:43;;;;;;;36.55;21.20;;;3.40;99.90;;;3.17;62.65;97337.84;6028029;23;20019;-79
2021/12/05 05:15:10;;;;;;;36.83;18.92;;;3.40;99.90;;;3.07;63.06;97328.97;6065853;23;20026;-79
2021/12/05 05:17:37;;;;;;;38.97;20.40;;;3.40;99.90;;;2.87;64.08;97329.69;6043607;23;20667;-80
2021/12/05 05:20:12;;;;;;;50.33;22.50;;;3.30;99.90;;;2.87;64.51;97343.06;6043582;23;20101;-80
2021/12/05 05:22:47;;;;;;;45.88;23.23;;;3.20;99.90;;;3.00;64.50;97334.56;6053828;23;20023;-79
2021/12/05 05:44:28;;;;;;;41.30;21.80;;;3.40;99.90;;;2.87;64.92;97356.47;6055730;23;20018;-81
2021/12/05 05:52:15;;;;;;;44.42;21.48;;;3.20;99.90;;;2.79;65.15;97363.09;6052146;23;20046;-81
2021/12/05 05:54:44;;;;;;;54.25;26.55;;;3.20;99.90;;;2.78;65.66;97359.63;6041748;23;20015;-80
2021/12/05 05:57:24;;;;;;;39.30;21.25;;;3.20;99.90;;;2.80;65.15;97356.72;6043145;23;20029;-80
2021/12/05 06:00:00;;;;;;;41.45;21.83;;;3.20;99.90;;;2.71;65.63;97359.03;6057595;23;20069;-80
2021/12/05 06:05:11;;;;;;;44.55;22.13;;;3.10;99.90;;;2.75;66.09;97365.50;6055532;23;20125;-81
2021/12/05 06:07:43;;;;;;;39.28;23.00;;;3.10;99.90;;;2.66;66.27;97374.28;6043783;23;20268;-80
2021/12/05 06:10:11;;;;;;;42.00;22.63;;;3.10;99.90;;;2.76;66.04;97367.13;6051400;23;20062;-80
2021/12/05 06:12:38;;;;;;;37.15;22.10;;;3.10;99.90;;;2.66;66.65;97363.56;6040132;23;20022;-81
2021/12/05 06:15:05;;;;;;;51.75;25.10;;;3.10;99.90;;;2.58;66.59;97364.84;6040350;23;20797;-81
2021/12/05 06:17:31;;;;;;;52.55;26.00;;;3.10;99.90;;;2.58;66.65;97370.22;6040825;23;20030;-81
2021/12/05 06:19:58;;;;;;;43.00;24.25;;;3.00;99.90;;;2.70;66.70;97373.50;6063539;23;20061;-82
2021/12/05 06:22:24;;;;;;;48.50;25.27;;;3.00;99.90;;;2.79;66.17;97371.94;6039593;23;20015;-82
2021/12/05 06:24:50;;;;;;;44.45;24.35;;;3.10;99.90;;;2.77;66.78;97370.59;6038746;23;20102;-82
2021/12/05 06:27:17;;;;;;;44.25;23.45;;;3.10;99.90;;;2.90;66.61;97369.31;6039833;23;20094;-81
2021/12/05 06:29:51;;;;;;;52.03;26.05;;;3.20;99.90;;;3.02;65.74;97381.44;6014881;23;20019;-80
2021/12/05 06:37:48;;;;;;;96.85;43.92;;;3.30;99.90;;;2.94;65.83;97373.91;6042276;23;20471;-81
2021/12/05 06:47:56;;;;;;;51.65;28.10;;;3.40;99.90;;;3.06;65.70;97399.72;6047738;23;20057;-81
2021/12/05 06:50:22;;;;;;;54.85;29.70;;;3.40;99.90;;;2.98;66.36;97401.00;6059467;23;20051;-81
2021/12/05 06:52:48;;;;;;;55.33;26.27;;;3.40;99.90;;;3.03;66.48;97398.34;6035492;23;20439;-81
2021/12/05 06:55:15;;;;;;;52.65;25.83;;;3.40;99.90;;;3.02;66.31;97405.56;6035582;23;20384;-81
2021/12/05 06:57:41;;;;;;;53.95;25.17;;;3.50;99.90;;;3.02;66.42;97402.09;6035638;23;20070;-81
2021/12/05 07:00:24;;;;;;;40.13;22.27;;;3.40;99.90;;;2.99;66.95;97410.66;6012561;23;20050;-81
2021/12/05 07:02:51;;;;;;;62.83;27.52;;;3.50;99.90;;;3.00;66.83;97413.06;6011574;23;20078;-82
2021/12/05 07:08:04;;;;;;;44.70;24.23;;;3.50;99.90;;;3.06;66.88;97408.56;6047470;23;20030;-82
2021/12/05 07:10:38;;;;;;;56.22;27.08;;;3.50;99.90;;;3.06;67.05;97419.25;6035370;23;20018;-82
2021/12/05 07:15:57;;;;;;;47.30;25.70;;;3.60;99.90;;;3.26;66.35;97435.47;6047262;23;20019;-81
2021/12/05 07:21:15;;;;;;;45.40;26.25;;;3.70;99.90;;;3.31;66.58;97426.66;6037268;23;20435;-81
2021/12/05 07:26:14;;;;;;;51.53;29.50;;;3.80;99.90;;;3.43;66.03;97431.78;6059895;23;20033;-81
2021/12/05 07:42:25;;;;;;;47.00;26.15;;;4.30;99.90;;;4.14;64.20;97418.59;6052016;23;20110;-81
2021/12/05 07:44:55;;;;;;;43.03;20.27;;;4.40;99.90;;;4.26;64.20;97423.72;6014516;23;20038;-81
2021/12/05 07:47:24;;;;;;;40.33;23.20;;;4.40;99.90;;;4.13;63.63;97417.00;6025014;23;20381;-81
2021/12/05 07:49:52;;;;;;;36.70;19.05;;;4.50;99.90;;;4.10;64.33;97416.75;6039904;23;20350;-81
2021/12/05 07:52:22;;;;;;;36.10;20.35;;;4.50;99.90;;;4.20;63.97;97415.94;6039020;23;20494;-81
2021/12/05 07:54:56;;;;;;;46.30;24.27;;;4.50;99.90;;;4.14;63.95;97421.28;6015870;23;20403;-81
2021/12/05 07:57:51;;;;;;;40.80;22.35;;;4.60;99.90;;;4.19;64.17;97423.19;6049659;23;20030;-81
2021/12/05 08:16:50;;;;;;;46.90;25.10;;;4.70;99.90;;;4.60;63.40;97430.47;6072077;23;20039;-81
2021/12/05 08:19:18;;;;;;;51.10;25.45;;;4.80;99.90;;;4.60;63.33;97423.22;6039516;23;20022;-81
2021/12/05 08:21:45;;;;;;;40.15;22.52;;;4.80;99.90;;;4.51;63.45;97425.63;6039829;23;20130;-81
2021/12/05 08:24:12;;;;;;;41.70;22.60;;;4.90;99.90;;;4.44;63.40;97433.16;6036338;23;20019;-81
2021/12/05 08:26:38;;;;;;;39.45;24.27;;;4.90;99.90;;;4.45;62.98;97431.25;6015782;23;20074;-81
2021/12/05 08:34:46;;;;;;;44.85;25.05;;;4.80;99.90;;;4.44;62.98;97438.53;6052232;23;20018;-81
2021/12/05 08:37:45;;;;;;;52.25;28.48;;;4.90;99.90;;;4.55;63.08;97445.53;6053402;23;20019;-80
2021/12/05 09:08:42;;;;;;;52.03;29.05;;;5.20;99.90;;;5.04;61.95;97456.78;6018718;23;20061;-79
2021/12/05 09:30:11;;;;;;;49.00;26.63;;;5.70;99.90;;;5.47;61.40;97460.75;6001437;23;20203;-81
2021/12/05 10:08:12;;;;;;;57.00;29.27;;;6.20;99.90;;;5.86;59.87;97478.91;6052085;23;20339;-80
2021/12/05 10:13:19;;;;;;;47.78;27.05;;;6.30;99.90;;;6.00;59.57;97474.56;6039137;23;20122;-80
2021/12/05 10:38:20;;;;;;;50.15;28.25;;;7.00;99.90;;;6.67;57.21;97476.88;6040924;23;20022;-80
2021/12/05 10:41:21;;;;;;;59.30;30.17;;;7.00;99.90;;;6.63;57.35;97482.00;6049082;23;20047;-80
2021/12/05 10:43:53;;;;;;;55.65;30.27;;;7.00;99.90;;;6.44;57.78;97483.78;6044657;23;20034;-80
2021/12/05 10:46:21;;;;;;;66.28;34.58;;;6.90;99.90;;;6.58;57.30;97478.56;6039003;23;20058;-80
2021/12/05 10:49:24;;;;;;;60.42;31.80;;;6.90;99.90;;;6.43;57.66;97471.38;6039130;23;20018;-80
2021/12/05 10:51:57;;;;;;;59.42;31.85;;;6.80;99.90;;;6.13;58.19;97475.03;6053673;23;20023;-80
2021/12/05 10:54:27;;;;;;;59.38;30.45;;;6.70;99.90;;;6.30;58.20;97475.50;6026951;23;20025;-80
2021/12/05 10:57:02;;;;;;;60.65;32.60;;;6.70;99.90;;;6.40;58.22;97477.31;6072445;23;20015;-80
2021/12/05 10:59:38;;;;;;;62.55;36.45;;;6.70;99.90;;;6.50;57.90;97478.06;6049233;23;20069;-81
2021/12/05 11:02:08;;;;;;;55.28;29.75;;;6.80;99.90;;;6.57;57.66;97487.75;6026502;23;20019;-80
2021/12/05 11:04:39;;;;;;;57.35;31.17;;;6.80;99.90;;;6.54;57.89;97478.31;6038699;23;20783;-80
2021/12/05 11:07:05;;;;;;;58.25;30.15;;;6.90;99.90;;;6.26;58.03;97477.94;6061836;23;20046;-80
2021/12/05 11:09:39;;;;;;;55.13;29.27;;;6.80;99.90;;;6.27;58.19;97490.31;6086513;23;20019;-80
2021/12/05 11:12:16;;;;;;;56.55;32.92;;;6.70;99.90;;;6.22;58.58;97492.22;6039089;23;20652;-80
2021/12/05 11:14:58;;;;;;;56.88;31.98;;;6.60;99.90;;;6.21;58.49;97501.41;6071935;23;20121;-80
2021/12/05 11:17:33;;;;;;;74.72;35.03;;;6.60;99.90;;;6.30;58.21;97497.84;6048958;23;20019;-80
2021/12/05 11:20:02;;;;;;;58.40;33.63;;;6.60;99.90;;;6.35;58.03;97496.22;6063509;23;20019;-81
2021/12/05 11:22:49;;;;;;;59.17;32.58;;;6.60;99.90;;;6.16;58.57;97494.16;6064294;23;20510;-81
2021/12/05 11:25:19;;;;;;;54.03;30.60;;;6.50;99.90;;;6.19;58.61;97488.22;6072127;23;20029;-80
2021/12/05 11:27:53;;;;;;;57.20;31.33;;;6.60;99.90;;;6.32;58.38;97484.09;6039039;23;20022;-80
2021/12/05 11:30:31;;;;;;;57.15;32.30;;;6.50;99.90;;;6.38;58.33;97487.56;6049029;23;20030;-80
2021/12/05 11:32:58;;;;;;;59.55;32.10;;;6.60;99.90;;;6.42;57.99;97483.25;6049105;23;20327;-81
2021/12/05 11:35:37;;;;;;;59.65;31.42;;;6.60;99.90;;;6.33;58.25;97485.69;6086774;23;20513;-80
2021/12/05 11:38:39;;;;;;;59.72;33.08;;;6.70;99.90;;;6.18;58.48;97492.00;6062972;23;20029;-80
2021/12/05 11:41:11;;;;;;;53.10;30.08;;;6.60;99.90;;;6.16;58.74;97496.84;6072056;23;20451;-80
2021/12/05 11:43:42;;;;;;;66.05;35.05;;;6.50;99.90;;;6.29;58.80;97498.13;6047912;23;20023;-80
2021/12/05 11:46:11;;;;;;;61.25;33.60;;;6.50;99.90;;;6.23;59.09;97501.91;6061239;23;20027;-80
2021/12/05 11:48:42;;;;;;;58.97;31.90;;;6.50;99.90;;;6.20;59.52;97511.34;6038719;23;20015;-80
2021/12/05 11:51:28;;;;;;;54.25;30.50;;;6.50;99.90;;;6.16;59.35;97518.38;6048231;23;20364;-80
2021/12/05 11:54:08;;;;;;;58.75;31.88;;;6.50;99.90;;;6.08;59.43;97510.88;6071897;23;20022;-80
2021/12/05 11:56:34;;;;;;;54.20;27.75;;;6.50;99.90;;;6.11;59.29;97501.44;6073943;23;20023;-82
2021/12/05 11:59:30;;;;;;;51.90;29.02;;;6.50;99.90;;;6.23;59.54;97507.28;6063969;23;20026;-80
2021/12/05 12:02:26;;;;;;;53.13;30.15;;;6.50;99.90;;;6.25;59.44;97499.75;6071494;23;20019;-80
2021/12/05 12:05:08;;;;;;;57.17;30.27;;;6.50;99.90;;;6.28;59.32;97502.72;6050601;23;20342;-80
2021/12/05 12:07:47;;;;;;;58.50;31.25;;;6.60;99.90;;;6.29;60.11;97508.91;6049927;23;20510;-80
2021/12/05 12:10:19;;;;;;;71.55;37.92;;;6.60;99.90;;;6.26;60.16;97520.22;6071448;23;20093;-80
2021/12/05 12:12:49;;;;;;;76.72;39.35;;;6.70;99.90;;;6.28;60.23;97526.13;6063532;23;20022;-80
2021/12/05 12:15:16;;;;;;;80.53;39.88;;;6.70;99.90;;;6.30;60.25;97523.97;6014276;23;20018;-80
2021/12/05 12:17:43;;;;;;;66.95;38.08;;;6.70;99.90;;;6.38;60.22;97523.38;6037717;23;20018;-80
2021/12/05 12:20:11;;;;;;;71.68;38.53;;;6.70;99.90;;;6.36;60.13;97525.56;6037137;23;20026;-80
2021/12/05 12:22:39;;;;;;;63.42;34.38;;;6.70;99.90;;;6.35;60.25;97533.91;6037556;23;20023;-80
2021/12/05 12:25:12;;;;;;;62.88;33.10;;;6.70;99.90;;;6.34;59.89;97524.22;6037043;23;20041;-81
2021/12/05 12:27:42;;;;;;;62.30;31.20;;;6.70;99.90;;;6.30;60.38;97530.16;6061314;23;20034;-81
2021/12/05 12:30:10;;;;;;;53.35;30.92;;;6.60;99.90;;;6.29;60.30;97533.94;6060915;23;20018;-80
2021/12/05 12:32:42;;;;;;;53.78;31.08;;;6.60;99.90;;;6.22;60.28;97530.72;6036964;23;20396;-81
2021/12/05 12:35:18;;;;;;;52.40;30.23;;;6.60;99.90;;;6.22;60.60;97536.13;6048670;23;20067;-81
2021/12/05 12:38:08;;;;;;;47.75;26.65;;;6.60;99.90;;;6.17;60.71;97533.44;6016838;23;20479;-81
2021/12/05 12:40:45;;;;;;;39.60;22.70;;;6.60;99.90;;;6.08;60.80;97527.00;6049504;23;20019;-83
2021/12/05 12:43:38;;;;;;;38.08;21.80;;;6.50;99.90;;;6.00;61.33;97523.00;6040637;23;20076;-81
2021/12/05 12:46:20;;;;;;;37.00;21.20;;;6.40;99.90;;;6.19;61.03;97512.44;6052786;23;20392;-82
2021/12/05 12:48:47;;;;;;;49.45;20.95;;;6.40;99.90;;;6.18;60.39;97507.31;6073959;23;20470;-81
2021/12/05 12:51:36;;;;;;;29.00;19.08;;;6.50;99.90;;;6.11;61.40;97515.72;6040213;23;20431;-81
2021/12/05 12:54:11;;;;;;;31.52;18.95;;;6.40;99.90;;;6.21;61.17;97521.06;6073322;23;20030;-82
2021/12/05 12:56:39;;;;;;;33.00;18.98;;;6.40;99.90;;;6.22;60.50;97511.09;6049360;23;20018;-81
2021/12/05 12:59:10;;;;;;;31.00;18.88;;;6.50;99.90;;;6.26;61.29;97506.78;6037893;23;20078;-81
2021/12/05 13:10:04;;;;;;;33.63;18.00;;;6.40;99.90;;;6.03;61.22;97513.56;6064597;23;20053;-81
2021/12/05 13:12:40;;;;;;;35.25;19.35;;;6.40;99.90;;;6.07;61.97;97517.34;6047331;23;20023;-81
2021/12/05 13:15:25;;;;;;;34.67;19.23;;;6.40;99.90;;;6.09;61.62;97518.69;6069124;23;20109;-82
2021/12/05 13:17:54;;;;;;;37.55;19.13;;;6.40;99.90;;;6.08;61.70;97513.56;6091569;23;20023;-81
2021/12/05 13:20:53;;;;;;;28.58;18.40;;;6.40;99.90;;;6.05;61.34;97514.91;6014817;23;20027;-82
2021/12/05 13:23:27;;;;;;;37.97;21.30;;;6.40;99.90;;;6.16;61.28;97510.31;6053218;23;20027;-82
2021/12/05 13:26:14;;;;;;;48.30;22.60;;;6.40;99.90;;;6.16;61.86;97510.31;6026614;23;20030;-82
2021/12/05 13:29:17;;;;;;;40.75;20.40;;;6.40;99.90;;;6.07;61.22;97517.34;6095689;23;20447;-82
2021/12/05 13:32:12;;;;;;;34.25;19.77;;;6.40;99.90;;;6.06;61.27;97516.53;6064541;23;20026;-82
2021/12/05 13:34:42;;;;;;;33.97;20.35;;;6.30;99.90;;;5.95;61.71;97519.53;6073458;23;20023;-82
2021/12/05 13:37:09;;;;;;;32.38;19.55;;;6.20;99.90;;;5.79;62.48;97514.16;6086798;23;20043;-82
2021/12/05 13:39:52;;;;;;;36.35;20.52;;;6.10;99.90;;;5.76;62.12;97514.72;6086572;23;20077;-82
2021/12/05 13:42:34;;;;;;;36.38;20.17;;;6.00;99.90;;;5.74;62.68;97519.56;6070832;23;20022;-82
2021/12/05 13:45:01;;;;;;;44.33;21.08;;;6.00;99.90;;;5.66;62.48;97515.56;6084522;23;20031;-82
2021/12/05 13:47:35;;;;;;;36.13;20.13;;;5.90;99.90;;;5.62;63.12;97514.50;6063015;23;20023;-82
2021/12/05 13:50:17;;;;;;;41.65;21.75;;;5.80;99.90;;;5.57;63.28;97517.22;6061412;23;20023;-82
2021/12/05 13:52:58;;;;;;;41.55;22.75;;;5.80;99.90;;;5.65;63.11;97521.22;6062640;23;20023;-82
2021/12/05 13:55:39;;;;;;;46.77;25.57;;;5.80;99.90;;;5.65;63.18;97521.22;6095188;23;20019;-82
2021/12/05 13:58:44;;;;;;;42.67;24.60;;;5.80;99.90;;;5.71;62.64;97522.00;6073647;23;20355;-82
2021/12/05 14:01:11;;;;;;;45.13;25.50;;;5.80;99.90;;;5.65;63.20;97522.03;6078484;23;20026;-82
2021/12/05 14:03:38;;;;;;;47.63;25.13;;;5.80;99.90;;;5.65;63.17;97521.22;6063362;23;20049;-82
2021/12/05 14:06:28;;;;;;;46.72;23.20;;;5.80;99.90;;;5.70;62.56;97525.75;6063754;23;20046;-82
2021/12/05 14:09:15;;;;;;;43.47;24.05;;;5.80;99.90;;;5.68;63.09;97534.13;6065328;23;20435;-82
2021/12/05 14:12:19;;;;;;;39.80;22.55;;;5.80;99.90;;;5.66;63.16;97534.38;6066541;23;20094;-82
2021/12/05 14:14:55;;;;;;;44.80;23.88;;;5.80;99.90;;;5.72;62.65;97537.88;6073092;23;20015;-82
2021/12/05 14:17:24;;;;;;;45.72;22.92;;;5.70;99.90;;;5.73;62.42;97549.47;6049615;23;20469;-82
2021/12/05 14:19:54;;;;;;;43.72;24.05;;;5.80;99.90;;;5.74;62.51;97542.97;6038649;23;20402;-82
2021/12/05 14:22:22;;;;;;;42.72;23.05;;;5.80;99.90;;;5.69;62.58;97537.63;6048348;23;20057;-82
2021/12/05 14:24:54;;;;;;;43.63;24.88;;;5.80;99.90;;;5.72;62.72;97539.75;6039032;23;20361;-82
2021/12/05 14:27:27;;;;;;;39.78;23.30;;;5.80;99.90;;;5.68;62.95;97541.41;6015212;23;20101;-82
2021/12/05 14:29:55;;;;;;;46.42;23.90;;;5.80;99.90;;;5.72;62.42;97548.63;6040558;23;20011;-82
2021/12/05 14:32:25;;;;;;;39.72;23.30;;;5.70;99.90;;;5.67;62.39;97556.72;6037697;23;20097;-82
2021/12/05 14:35:00;;;;;;;47.28;25.70;;;5.70;99.90;;;5.64;62.76;97543.81;6070917;23;20026;-82
2021/12/05 14:37:27;;;;;;;41.35;24.83;;;5.80;99.90;;;5.72;62.87;97559.38;6065924;23;20029;-82
2021/12/05 14:39:59;;;;;;;46.45;25.13;;;5.70;99.90;;;5.67;62.90;97559.41;6037199;23;20408;-82
2021/12/05 14:42:28;;;;;;;48.47;25.20;;;5.70;99.90;;;5.69;62.54;97564.53;6047341;23;20046;-82
2021/12/05 14:45:09;;;;;;;44.90;25.52;;;5.70;99.90;;;5.70;62.55;97572.34;6060628;23;20046;-82
2021/12/05 14:47:36;;;;;;;47.97;24.55;;;5.70;99.90;;;5.76;62.65;97579.31;6025971;23;20074;-82
2021/12/05 14:50:10;;;;;;;47.88;26.92;;;5.80;99.90;;;5.66;62.91;97579.31;6037963;23;20098;-81
2021/12/05 14:52:40;;;;;;;40.50;25.70;;;5.70;99.90;;;5.59;63.42;97576.09;6044095;23;20019;-82
2021/12/05 14:55:11;;;;;;;52.97;28.70;;;5.70;99.90;;;5.57;63.00;97578.25;6043938;23;20023;-82
2021/12/05 14:57:49;;;;;;;45.53;27.02;;;5.60;99.90;;;5.54;63.25;97581.50;6044021;23;20494;-82
2021/12/05 15:00:42;;;;;;;47.45;27.52;;;5.60;99.90;;;5.46;63.36;97590.91;6051068;23;20076;-82
2021/12/05 15:03:17;;;;;;;54.22;27.58;;;5.50;99.90;;;5.46;63.08;97588.22;6064460;23;20019;-82
2021/12/05 15:05:51;;;;;;;46.50;26.92;;;5.50;99.90;;;5.40;63.75;97595.50;6040657;23;20529;-82
2021/12/05 15:08:21;;;;;;;50.92;29.25;;;5.50;99.90;;;5.39;64.23;97612.72;6048532;23;20018;-82
2021/12/05 15:10:54;;;;;;;52.65;27.83;;;5.50;99.90;;;5.43;64.34;97607.59;6013243;23;20121;-82
2021/12/05 15:13:20;;;;;;;47.40;27.83;;;5.50;99.90;;;5.37;64.17;97622.13;6061546;23;20340;-82
2021/12/05 15:15:49;;;;;;;54.92;30.85;;;5.50;99.90;;;5.27;64.76;97622.13;6060996;23;20034;-82
2021/12/05 15:18:23;;;;;;;62.95;32.10;;;5.40;99.90;;;5.34;64.69;97618.09;6038450;23;20019;-82
2021/12/05 15:20:49;;;;;;;97.80;43.58;;;5.40;99.90;;;5.32;64.52;97619.44;6048433;23;20026;-82
2021/12/05 15:23:15;;;;;;;98.30;43.00;;;5.40;99.90;;;5.32;64.16;97625.59;6062092;23;20354;-82
2021/12/05 15:25:42;;;;;;;110.25;49.58;;;5.40;99.90;;;5.30;64.52;97627.75;6036739;23;20443;-82
2021/12/05 15:28:09;;;;;;;96.65;49.38;;;5.40;99.90;;;5.33;64.27;97635.28;6034557;23;20864;-82
2021/12/05 15:30:41;;;;;;;99.50;47.00;;;5.40;99.90;;;5.40;64.59;97621.56;6034371;23;20023;-82
2021/12/05 15:33:09;;;;;;;;;;;5.40;99.90;;;5.38;64.56;97631.78;6018210;23;20528;-82
2021/12/05 15:35:35;;;;;;;86.47;43.50;;;5.40;99.90;;;5.38;64.21;97639.84;6031698;23;19921;-82
2021/12/05 15:38:05;;;;;;;71.30;38.80;;;5.40;99.90;;;5.40;64.54;97638.50;6009342;23;20450;-82
2021/12/05 15:40:32;;;;;;;90.43;44.08;;;5.40;99.90;;;5.39;64.16;97636.91;6045351;23;20018;-80
2021/12/05 15:43:06;;;;;;;58.88;31.98;;;5.40;99.90;;;5.22;64.53;97634.47;6036458;23;20106;-80
2021/12/05 15:45:36;;;;;;;93.10;48.25;;;5.40;99.90;;;5.31;64.66;97633.94;6046102;23;20387;-80
2021/12/05 15:48:02;;;;;;;85.55;46.33;;;5.30;99.90;;;5.31;64.36;97637.41;6038277;23;20566;-80
2021/12/05 15:50:31;;;;;;;93.07;45.53;;;5.30;99.90;;;5.38;64.03;97637.97;6064475;23;20045;-80
2021/12/05 15:53:01;;;;;;;101.30;50.33;;;5.40;99.90;;;5.27;64.67;97632.88;6041359;23;20019;-80
2021/12/05 15:55:42;;;;;;;87.25;46.47;;;5.40;99.90;;;5.21;64.24;97637.41;6063077;23;20078;-80
2021/12/05 15:58:30;;;;;;;93.70;45.75;;;5.30;99.90;;;5.15;64.54;97644.66;6050012;23;20015;-80
2021/12/05 16:01:06;;;;;;;75.13;40.70;;;5.30;99.90;;;5.08;64.70;97646.81;6051739;23;20041;-80
2021/12/05 16:03:51;;;;;;;79.53;40.50;;;5.30;99.90;;;5.03;65.19;97646.00;6051333;23;20075;-80